Time;durP1;ratioP1;P1;durP2;ratioP2;P2;SDS_P1;SDS_P2;PMS_P1;PMS_P2;Temp;Humidity;BMP_temperature;BMP_pressure;BME280_temperature;BME280_humidity;BME280_pressure;Samples;Min_cycle;Max_cycle;Signal;HPM_P1;HPM_P2
2020/12/11 00:00:32;;;;;;;6.35;3.50;;;;;;;3.78;100.00;96622.00;5024527;28;20047;-81
2020/12/11 00:02:58;;;;;;;14.18;3.60;;;;;;;3.86;100.00;96626.06;5041429;28;20030;-81
2020/12/11 00:05:23;;;;;;;5.03;2.90;;;;;;;3.90;100.00;96639.09;5041428;28;20030;-81
2020/12/11 00:07:49;;;;;;;4.32;3.65;;;;;;;3.86;100.00;96626.06;5021705;28;20094;-80
2020/12/11 00:10:15;;;;;;;9.38;4.20;;;;;;;3.87;100.00;96633.09;5016836;28;20087;-81
2020/12/11 00:12:41;;;;;;;10.13;5.07;;;;;;;3.92;100.00;96631.06;5025070;28;20057;-81
2020/12/11 00:15:08;;;;;;;4.57;2.50;;;;;;;3.94;100.00;96642.44;5027995;28;20033;-81
2020/12/11 00:17:34;;;;;;;4.68;3.13;;;;;;;3.87;100.00;96639.25;5020038;28;20040;-79
2020/12/11 00:20:00;;;;;;;2.22;2.03;;;;;;;3.86;100.00;96647.22;5020752;28;20405;-80
2020/12/11 00:22:26;;;;;;;2.90;2.55;;;;;;;3.84;100.00;96650.78;5036413;28;20053;-80
2020/12/11 00:24:52;;;;;;;5.50;2.25;;;;;;;3.87;100.00;96648.94;5031410;28;20056;-81
2020/12/11 00:27:18;;;;;;;6.47;3.88;;;;;;;3.79;100.00;96647.53;5047291;28;20029;-81
2020/12/11 00:29:44;;;;;;;2.28;1.80;;;;;;;3.87;100.00;96654.25;5028342;28;20390;-81
2020/12/11 00:32:10;;;;;;;4.13;2.78;;;;;;;3.81;100.00;96648.31;5037268;28;20021;-81
2020/12/11 00:34:36;;;;;;;3.70;2.88;;;;;;;3.84;100.00;96658.72;5027283;28;20182;-80
2020/12/11 00:37:02;;;;;;;7.90;4.97;;;;;;;3.79;100.00;96658.13;5028601;28;20025;-80
2020/12/11 00:39:28;;;;;;;3.15;2.40;;;;;;;3.87;100.00;96659.53;5033168;28;20043;-80
2020/12/11 00:41:56;;;;;;;8.82;3.05;;;;;;;3.86;100.00;96655.16;5030057;28;20536;-80
2020/12/11 00:44:22;;;;;;;3.33;2.95;;;;;;;3.82;100.00;96657.97;5043505;28;20025;-80
2020/12/11 00:46:48;;;;;;;5.10;3.20;;;;;;;3.83;100.00;96654.41;5026238;28;20035;-80
2020/12/11 00:49:13;;;;;;;3.38;2.88;;;;;;;3.78;100.00;96648.47;5045366;28;20104;-80
2020/12/11 00:51:39;;;;;;;4.88;2.72;;;;;;;3.67;100.00;96658.72;5020665;28;20478;-79
2020/12/11 00:54:05;;;;;;;7.28;3.35;;;;;;;3.66;100.00;96654.34;5023283;28;20037;-80
2020/12/11 00:56:30;;;;;;;5.10;2.90;;;;;;;3.60;100.00;96648.53;5032841;28;20411;-80
2020/12/11 00:58:56;;;;;;;4.15;2.72;;;;;;;3.60;100.00;96636.16;5033121;28;20040;-80
2020/12/11 01:01:22;;;;;;;19.90;6.68;;;;;;;3.71;100.00;96646.22;5021071;28;20025;-80
2020/12/11 01:03:47;;;;;;;4.05;2.60;;;;;;;3.67;100.00;96637.56;5046195;28;20029;-80
2020/12/11 01:06:13;;;;;;;3.67;2.88;;;;;;;3.70;100.00;96641.84;5026454;28;20045;-80
2020/12/11 01:08:38;;;;;;;3.03;2.58;;;;;;;3.67;100.00;96644.63;5027010;28;20041;-80
2020/12/11 01:11:04;;;;;;;7.47;3.38;;;;;;;3.68;100.00;96647.22;5032270;28;20513;-80
2020/12/11 01:13:30;;;;;;;4.00;2.45;;;;;;;3.67;100.00;96652.56;5035955;28;20100;-80
2020/12/11 01:15:55;;;;;;;5.95;3.05;;;;;;;3.59;100.00;96637.09;5044155;28;20033;-81
2020/12/11 01:18:21;;;;;;;4.53;3.00;;;;;;;3.68;100.00;96644.59;5031527;28;20052;-81
2020/12/11 01:20:47;;;;;;;5.47;2.15;;;;;;;3.67;100.00;96652.56;5053118;28;20051;-80
2020/12/11 01:23:12;;;;;;;2.25;1.65;;;;;;;3.62;100.00;96657.25;5032561;28;20032;-80
2020/12/11 01:25:38;;;;;;;1.30;1.23;;;;;;;3.61;100.00;96647.59;5033844;28;20041;-81
2020/12/11 01:28:04;;;;;;;0.47;0.47;;;;;;;3.58;100.00;96648.59;5033382;28;20449;-81
2020/12/11 01:30:30;;;;;;;3.03;2.15;;;;;;;3.63;100.00;96651.03;5035469;28;20055;-81
2020/12/11 01:32:56;;;;;;;0.80;0.80;;;;;;;3.62;100.00;96642.25;5023087;28;20145;-80
2020/12/11 01:35:22;;;;;;;2.08;1.67;;;;;;;3.67;100.00;96648.16;5036788;28;20543;-79
2020/12/11 01:37:47;;;;;;;1.20;1.15;;;;;;;3.69;100.00;96651.56;5043830;28;20035;-80
2020/12/11 01:40:13;;;;;;;2.72;2.38;;;;;;;3.71;100.00;96644.44;5018003;28;20095;-81
2020/12/11 01:42:38;;;;;;;2.63;1.13;;;;;;;3.70;100.00;96648.00;5048574;28;20021;-79
2020/12/11 01:45:04;;;;;;;3.67;1.73;;;;;;;3.69;100.00;96640.97;5028216;28;20033;-79
2020/12/11 01:47:30;;;;;;;2.08;1.88;;;;;;;3.75;100.00;96640.69;5027856;28;20103;-81
2020/12/11 01:49:56;;;;;;;2.30;2.10;;;;;;;3.81;100.00;96634.25;5031442;28;20032;-81
2020/12/11 01:52:22;;;;;;;1.77;1.67;;;;;;;3.76;100.00;96615.97;5020651;28;20026;-81
2020/12/11 01:54:48;;;;;;;2.17;1.35;;;;;;;3.80;100.00;96621.94;5030477;28;20481;-81
2020/12/11 01:57:21;;;;;;;3.47;2.58;;;;;;;3.85;100.00;96630.50;5025463;28;20057;-81
2020/12/11 01:59:52;;;;;;;5.57;1.85;;;;;;;3.84;100.00;96628.81;5026176;28;20027;-82
2020/12/11 02:02:21;;;;;;;2.28;2.08;;;;;;;3.90;100.00;96635.56;5019870;28;20459;-80
2020/12/11 02:04:47;;;;;;;1.27;1.20;;;;;;;3.81;100.00;96624.50;5057538;28;20025;-80
2020/12/11 02:07:13;;;;;;;7.03;2.13;;;;;;;3.86;100.00;96620.78;5019491;28;20075;-80
2020/12/11 02:09:39;;;;;;;3.33;2.92;;;;;;;3.86;100.00;96626.06;5034310;28;20033;-80
2020/12/11 02:12:05;;;;;;;4.28;3.88;;;;;;;3.87;100.00;96625.16;5018376;28;20095;-80
2020/12/11 02:14:31;;;;;;;2.45;2.25;;;;;;;3.83;100.00;96630.59;5031217;28;20470;-79
2020/12/11 02:17:06;;;;;;;1.65;1.55;;;;;;;3.77;100.00;96622.09;5017785;28;20508;-79
2020/12/11 02:19:33;;;;;;;1.17;1.10;;;;;;;3.70;100.00;96616.25;5023165;28;20029;-79
2020/12/11 02:22:03;;;;;;;4.47;2.30;;;;;;;3.81;100.00;96624.50;5027046;28;20120;-81
2020/12/11 02:24:29;;;;;;;2.75;2.25;;;;;;;3.76;100.00;96615.09;5054555;28;20033;-81
2020/12/11 02:26:58;;;;;;;3.53;1.25;;;;;;;3.74;100.00;96620.47;5035648;28;20190;-83
2020/12/11 02:29:25;;;;;;;4.10;2.40;;;;;;;3.71;100.00;96602.13;5038666;28;20036;-81
2020/12/11 02:31:51;;;;;;;1.58;1.48;;;;;;;3.71;100.00;96617.13;5031273;28;20501;-81
2020/12/11 02:34:17;;;;;;;1.95;1.20;;;;;;;3.73;100.00;96626.69;5034221;28;20158;-81
2020/12/11 02:36:42;;;;;;;0.88;0.85;;;;;;;3.74;100.00;96627.56;5034014;28;20064;-81
2020/12/11 02:39:08;;;;;;;1.65;1.55;;;;;;;3.68;100.00;96619.94;5036628;28;20040;-81
2020/12/11 02:41:34;;;;;;;1.77;1.45;;;;;;;3.69;100.00;96619.84;5034743;28;20067;-81
2020/12/11 02:44:00;;;;;;;1.25;1.20;;;;;;;3.61;100.00;96622.00;5038616;28;20480;-81
2020/12/11 02:46:29;;;;;;;1.42;1.33;;;;;;;3.61;100.00;96621.16;5020798;28;20033;-81
2020/12/11 02:48:55;;;;;;;1.42;1.33;;;;;;;3.65;100.00;96628.88;5034489;28;20029;-81
2020/12/11 02:51:21;;;;;;;5.88;1.98;;;;;;;3.68;100.00;96620.78;5039255;28;20029;-81
2020/12/11 02:53:50;;;;;;;1.63;1.20;;;;;;;3.67;100.00;96618.19;5043705;28;20037;-81
2020/12/11 02:56:22;;;;;;;1.40;1.30;;;;;;;3.73;100.00;96621.41;5031453;28;20025;-81
2020/12/11 02:58:48;;;;;;;1.27;1.17;;;;;;;3.75;100.00;96619.53;5064731;28;20444;-81
2020/12/11 03:01:14;;;;;;;1.98;1.83;;;;;;;3.82;100.00;96618.28;5048008;28;20021;-80
2020/12/11 03:03:40;;;;;;;2.08;1.92;;;;;;;3.78;100.00;96619.38;5041834;28;20029;-80
2020/12/11 03:06:05;;;;;;;6.55;3.90;;;;;;;3.78;100.00;96622.00;5038621;28;20044;-80
2020/12/11 03:08:31;;;;;;;3.03;2.55;;;;;;;3.72;100.00;96619.69;5031983;28;20036;-82
2020/12/11 03:10:57;;;;;;;4.53;2.35;;;;;;;3.74;100.00;96622.25;5024351;28;20025;-79
2020/12/11 03:13:22;;;;;;;3.35;2.13;;;;;;;3.81;100.00;96629.78;5035667;28;20036;-80
2020/12/11 03:15:48;;;;;;;3.83;3.38;;;;;;;3.78;100.00;96622.00;5034524;28;20032;-80
2020/12/11 03:18:14;;;;;;;2.47;1.67;;;;;;;3.80;100.00;96622.81;5046531;28;20037;-81
2020/12/11 03:20:39;;;;;;;8.77;2.80;;;;;;;3.83;100.00;96627.94;5030594;28;20097;-80
2020/12/11 03:23:05;;;;;;;6.30;2.20;;;;;;;3.87;100.00;96622.50;5027927;28;20059;-80
2020/12/11 03:25:31;;;;;;;2.30;1.95;;;;;;;3.91;100.00;96635.47;5025657;28;20037;-80
2020/12/11 03:27:56;;;;;;;1.38;1.33;;;;;;;3.84;100.00;96632.28;5033073;28;20059;-80
2020/12/11 03:30:22;;;;;;;3.25;2.45;;;;;;;3.84;100.00;96640.22;5034367;28;20095;-80
2020/12/11 03:32:48;;;;;;;2.53;2.33;;;;;;;3.92;100.00;96642.50;5027018;28;20361;-81
2020/12/11 03:35:13;;;;;;;3.83;2.95;;;;;;;3.91;100.00;96639.94;5025244;28;20073;-80
2020/12/11 03:37:39;;;;;;;3.28;2.80;;;;;;;3.81;100.00;96640.38;5027852;28;20025;-80
2020/12/11 03:40:05;;;;;;;3.47;1.60;;;;;;;3.86;100.00;96649.88;5026918;28;20033;-80
2020/12/11 03:42:31;;;;;;;1.95;1.52;;;;;;;3.89;100.00;96641.78;5047283;28;20562;-80
2020/12/11 03:44:57;;;;;;;2.65;1.92;;;;;;;3.89;100.00;96636.50;5016243;28;20037;-81
2020/12/11 03:47:22;;;;;;;4.63;2.92;;;;;;;3.84;100.00;96642.03;5044252;28;20120;-80
2020/12/11 03:49:48;;;;;;;1.67;1.58;;;;;;;3.74;100.00;96632.84;5021363;28;20036;-81
2020/12/11 03:52:14;;;;;;;7.43;3.05;;;;;;;3.76;100.00;96645.03;5032437;28;20059;-81
2020/12/11 03:54:39;;;;;;;2.92;2.42;;;;;;;3.80;100.00;96643.97;5026413;28;20108;-81
2020/12/11 03:57:05;;;;;;;1.40;1.35;;;;;;;3.89;100.00;96647.94;5029530;28;20048;-81
2020/12/11 03:59:30;;;;;;;2.20;1.02;;;;;;;3.88;100.00;96638.28;5027281;28;20037;-81
2020/12/11 04:01:56;;;;;;;1.42;1.35;;;;;;;3.92;100.00;96639.00;5024057;28;20140;-81
2020/12/11 04:04:22;;;;;;;1.40;1.30;;;;;;;3.93;100.00;96638.06;5029073;28;20017;-81
2020/12/11 04:06:47;;;;;;;2.10;1.70;;;;;;;3.95;100.00;96638.84;5038742;28;20037;-81
2020/12/11 04:09:13;;;;;;;1.48;1.38;;;;;;;3.95;100.00;96642.34;5031970;28;20021;-81
2020/12/11 04:11:38;;;;;;;1.40;1.30;;;;;;;3.89;100.00;96653.22;5041030;28;20059;-81
2020/12/11 04:14:04;;;;;;;3.55;1.67;;;;;;;3.92;100.00;96652.22;5015902;28;20025;-81
2020/12/11 04:16:31;;;;;;;2.03;1.77;;;;;;;3.91;100.00;96646.06;5028140;28;20033;-81
2020/12/11 04:18:56;;;;;;;2.63;1.63;;;;;;;3.90;100.00;96641.72;5029043;28;20037;-81
2020/12/11 04:21:22;;;;;;;4.50;2.67;;;;;;;3.92;100.00;96642.50;5040360;28;20024;-81
2020/12/11 04:23:48;;;;;;;3.53;1.95;;;;;;;4.00;100.00;96647.41;5028612;28;20029;-81
2020/12/11 04:26:13;;;;;;;2.08;1.90;;;;;;;4.03;100.00;96644.63;5035277;28;20029;-81
2020/12/11 04:28:39;;;;;;;1.58;1.48;;;;;;;4.03;100.00;96648.09;5027977;28;20481;-81
2020/12/11 04:31:05;;;;;;;2.85;2.13;;;;;;;4.00;100.00;96653.53;5038377;28;20036;-82
2020/12/11 04:33:30;;;;;;;2.40;1.83;;;;;;;3.98;100.00;96655.41;5023479;28;20462;-81
2020/12/11 04:35:56;;;;;;;5.43;2.28;;;;;;;4.06;100.00;96665.63;5039602;28;20025;-80
2020/12/11 04:38:22;;;;;;;2.33;2.13;;;;;;;4.09;100.00;96662.81;5023833;28;20120;-80
2020/12/11 04:40:47;;;;;;;2.22;1.92;;;;;;;3.98;100.00;96660.69;5047928;28;20060;-81
2020/12/11 04:43:13;;;;;;;2.92;2.70;;;;;;;3.89;100.00;96662.94;5046049;28;20033;-81
2020/12/11 04:45:40;;;;;;;1.80;1.35;;;;;;;3.78;100.00;96672.25;5019250;28;20032;-81
2020/12/11 04:48:09;;;;;;;0.88;0.88;;;;;;;3.84;100.00;96682.53;5024650;28;20025;-80
2020/12/11 04:50:35;;;;;;;4.22;2.20;;;;;;;3.83;100.00;96669.41;5024322;28;20121;-80
2020/12/11 04:53:03;;;;;;;4.97;2.45;;;;;;;3.87;100.00;96670.13;5028393;28;20039;-81
2020/12/11 04:55:34;;;;;;;5.97;2.13;;;;;;;3.84;100.00;96666.66;5015672;28;20029;-80
2020/12/11 04:58:04;;;;;;;4.15;2.55;;;;;;;3.88;100.00;96671.84;5027697;28;20445;-80
2020/12/11 05:00:30;;;;;;;2.95;2.25;;;;;;;3.97;100.00;96668.72;5017147;28;20119;-80
2020/12/11 05:02:56;;;;;;;3.05;2.72;;;;;;;4.07;100.00;96667.31;5041869;28;20071;-80
2020/12/11 05:05:21;;;;;;;2.45;2.28;;;;;;;4.12;100.00;96678.53;5024137;28;20128;-81
2020/12/11 05:07:47;;;;;;;1.95;1.85;;;;;;;4.00;100.00;96689.75;5029681;28;20112;-81
2020/12/11 05:10:13;;;;;;;2.72;2.28;;;;;;;3.83;100.00;96672.91;5021934;28;20029;-80
2020/12/11 05:12:39;;;;;;;1.95;1.85;;;;;;;3.83;100.00;96675.56;5032566;28;20104;-81
2020/12/11 05:15:09;;;;;;;1.77;1.40;;;;;;;3.95;100.00;96682.00;5041412;28;20059;-80
2020/12/11 05:17:40;;;;;;;2.70;2.10;;;;;;;4.03;100.00;96679.84;5023615;28;20028;-81
2020/12/11 05:20:08;;;;;;;5.03;2.38;;;;;;;4.04;100.00;96678.06;5031851;28;20037;-82
2020/12/11 05:22:38;;;;;;;1.65;1.55;;;;;;;4.10;100.00;96683.88;5028911;28;20500;-82
2020/12/11 05:25:12;;;;;;;1.52;1.25;;;;;;;4.07;100.00;96673.47;5025528;28;20033;-79
2020/12/11 05:27:40;;;;;;;3.05;1.10;;;;;;;4.17;100.00;96689.75;5041929;28;20040;-81
2020/12/11 05:30:13;;;;;;;2.40;1.55;;;;;;;4.17;100.00;96679.16;5029442;28;20090;-82
2020/12/11 05:32:42;;;;;;;4.63;2.40;;;;;;;4.12;100.00;96681.19;5036163;28;20088;-81
2020/12/11 05:35:22;;;;;;;3.50;1.83;;;;;;;4.13;100.00;96672.28;5024619;28;20037;-80
2020/12/11 05:38:07;;;;;;;1.65;1.55;;;;;;;3.98;100.00;96673.06;5032772;28;20026;-80
2020/12/11 05:40:35;;;;;;;2.28;1.42;;;;;;;3.92;100.00;96673.38;5015110;28;20029;-80
2020/12/11 05:43:04;;;;;;;2.05;1.33;;;;;;;3.79;100.00;96673.13;5049480;28;20067;-81
2020/12/11 05:45:31;;;;;;;6.25;1.42;;;;;;;3.60;100.00;96672.34;5039493;28;20029;-80
2020/12/11 05:47:59;;;;;;;2.40;1.85;;;;;;;3.52;100.00;96677.97;5026562;28;20044;-80
2020/12/11 05:50:25;;;;;;;10.93;3.17;;;;;;;3.50;100.00;96681.63;5028395;28;20112;-81
2020/12/11 05:52:53;;;;;;;2.55;1.98;;;;;;;3.46;100.00;96678.28;5015472;28;20100;-80
2020/12/11 05:55:21;;;;;;;3.78;2.25;;;;;;;3.39;100.00;96679.47;5011422;28;20041;-80
2020/12/11 05:57:51;;;;;;;6.50;3.42;;;;;;;3.34;100.00;96681.50;5037759;28;20036;-81
2020/12/11 06:00:18;;;;;;;6.47;4.47;;;;;;;3.31;100.00;96686.06;5022867;28;20120;-80
2020/12/11 06:02:44;;;;;;;6.75;5.25;;;;;;;3.28;100.00;96697.66;5021318;28;20140;-81
2020/12/11 06:05:10;;;;;;;4.63;2.50;;;;;;;3.28;100.00;96693.22;5025307;28;20111;-79
2020/12/11 06:07:38;;;;;;;6.10;4.18;;;;;;;3.23;100.00;96703.13;5020587;28;20040;-80
2020/12/11 06:10:04;;;;;;;8.23;4.32;;;;;;;3.18;100.00;96699.00;5030998;28;20466;-80
2020/12/11 06:12:31;;;;;;;8.55;5.50;;;;;;;3.12;100.00;96707.22;5028170;28;20052;-79
2020/12/11 06:15:04;;;;;;;3.65;3.35;;;;;;;3.15;100.00;96715.00;5029465;28;20067;-77
2020/12/11 06:17:37;;;;;;;2.92;2.60;;;;;;;3.16;100.00;96714.94;5024633;28;20512;-75
2020/12/11 06:20:03;;;;;;;4.80;3.38;;;;;;;3.23;100.00;96712.88;5026642;28;20063;-75
2020/12/11 06:22:35;;;;;;;3.50;3.20;;;;;;;3.24;100.00;96714.56;5023392;28;20033;-74
2020/12/11 06:25:23;;;;;;;4.70;3.03;;;;;;;3.20;100.00;96716.47;5046004;28;20026;-78
2020/12/11 06:27:49;;;;;;;22.23;8.55;;;;;;;3.16;100.00;96716.72;5031585;28;20399;-77
2020/12/11 06:30:33;;;;;;;7.72;6.88;;;;;;;3.14;100.00;96722.06;5022407;28;20041;-75
2020/12/11 06:33:00;;;;;;;23.30;10.45;;;;;;;3.26;100.00;96728.56;5025367;28;20116;-76
2020/12/11 06:35:27;;;;;;;13.95;8.98;;;;;;;3.23;100.00;96726.06;5042363;28;20490;-76
2020/12/11 06:37:53;;;;;;;24.20;10.13;;;;;;;3.30;100.00;96730.13;5040284;28;20493;-75
2020/12/11 06:40:50;;;;;;;13.98;9.73;;;;;;;3.57;100.00;96733.28;5026159;28;20033;-76
2020/12/11 06:43:44;;;;;;;22.52;13.73;;;;;;;4.31;100.00;96735.75;5034381;28;20060;-78
2020/12/11 06:46:21;;;;;;;27.13;13.68;;;;;;;5.76;100.00;96742.13;5056064;28;20393;-74
2020/12/11 06:49:09;;;;;;;23.40;14.05;;;;;;;6.90;97.67;96736.31;5011207;28;20037;-74
2020/12/11 06:51:47;;;;;;;19.48;10.93;;;;;;;7.30;88.97;96745.38;5036671;28;20456;-81
2020/12/11 06:54:22;;;;;;;19.42;11.27;;;;;;;7.60;86.56;96746.13;5042187;28;20030;-80
2020/12/11 06:57:09;;;;;;;9.25;7.75;;;;;;;7.91;82.98;96737.03;5043240;28;20025;-82
2020/12/11 06:59:36;;;;;;;10.90;7.20;;;;;;;8.50;80.44;96735.81;5025717;28;20057;-80
2020/12/11 07:02:05;;;;;;;17.73;8.57;;;;;;;8.90;78.67;96737.50;5041562;28;20040;-81
2020/12/11 07:04:38;;;;;;;13.60;7.65;;;;;;;9.50;73.89;96734.22;5031499;28;20026;-80
2020/12/11 07:07:04;;;;;;;20.20;8.43;;;;;;;9.79;73.28;96738.31;5041484;28;20034;-80
2020/12/11 07:09:29;;;;;;;16.15;9.00;;;;;;;10.07;72.35;96730.03;5025284;28;20515;-81
2020/12/11 07:11:56;;;;;;;24.17;9.60;;;;;;;10.17;71.93;96731.09;5027491;28;20025;-80
2020/12/11 07:14:26;;;;;;;14.55;9.43;;;;;;;10.89;68.30;96737.22;5024919;28;20044;-82
2020/12/11 07:16:52;;;;;;;15.65;8.70;;;;;;;11.25;64.52;96729.06;5026282;28;20086;-82
2020/12/11 07:19:17;;;;;;;12.05;7.60;;;;;;;11.01;66.54;96738.16;5025760;28;20033;-81
2020/12/11 07:21:46;;;;;;;15.73;9.13;;;;;;;10.89;67.53;96737.22;5030461;28;20381;-81
2020/12/11 07:24:21;;;;;;;24.08;10.80;;;;;;;11.37;65.23;96725.44;5021981;28;20113;-82
2020/12/11 07:26:47;;;;;;;21.30;10.23;;;;;;;12.23;63.43;96731.03;5020895;28;20031;-81
2020/12/11 07:29:16;;;;;;;28.50;13.77;;;;;;;12.35;62.15;96729.16;5046501;28;20025;-80
2020/12/11 07:31:44;;;;;;;21.25;11.88;;;;;;;12.42;61.55;96728.56;5019027;28;20037;-82
2020/12/11 07:34:19;;;;;;;19.67;10.63;;;;;;;12.67;60.59;96710.41;5031148;28;20053;-81
2020/12/11 07:36:56;;;;;;;18.30;9.57;;;;;;;13.03;61.01;96707.31;5024396;28;20086;-81
2020/12/11 07:39:27;;;;;;;17.17;9.38;;;;;;;13.96;56.11;96727.78;5040080;28;20022;-80
2020/12/11 07:41:55;;;;;;;33.15;11.85;;;;;;;14.41;55.35;96722.84;5042597;28;20025;-83
2020/12/11 07:44:25;;;;;;;21.15;11.23;;;;;;;14.60;54.33;96732.78;5023580;28;20119;-80
2020/12/11 07:47:39;;;;;;;29.98;12.95;;;;;;;14.34;54.83;96735.13;5026507;28;20025;-81
2020/12/11 07:50:09;;;;;;;19.17;11.02;;;;;;;14.13;55.88;96742.41;5033362;28;20029;-81
2020/12/11 07:52:34;;;;;;;22.35;13.27;;;;;;;14.15;55.87;96735.03;5019841;28;20029;-80
2020/12/11 07:55:10;;;;;;;26.63;14.55;;;;;;;14.48;56.66;96744.66;5024712;28;20052;-81
2020/12/11 07:57:35;;;;;;;14.68;11.35;;;;;;;13.87;55.35;96746.56;5025188;28;20025;-80
2020/12/11 08:00:05;;;;;;;53.05;18.08;;;;;;;12.31;62.28;96747.31;5026028;28;20409;-81
2020/12/11 08:02:33;;;;;;;34.47;14.65;;;;;;;13.25;58.87;96744.81;5025104;28;20439;-81
2020/12/11 08:04:59;;;;;;;27.15;13.98;;;;;;;13.59;57.48;96745.44;5021258;28;20017;-80
2020/12/11 08:07:25;;;;;;;31.48;13.13;;;;;;;14.11;57.49;96755.16;5043611;28;20394;-81
2020/12/11 08:09:51;;;;;;;26.73;12.13;;;;;;;13.67;56.30;96752.81;5023071;28;20033;-81
2020/12/11 08:12:18;;;;;;;20.70;11.65;;;;;;;13.11;59.16;96753.16;5024648;28;20024;-81
2020/12/11 08:14:50;;;;;;;51.13;15.07;;;;;;;11.31;63.15;96739.31;5038593;28;20032;-82
2020/12/11 08:17:19;;;;;;;31.42;14.73;;;;;;;9.92;70.41;96736.47;5020747;28;20466;-80
2020/12/11 08:19:55;;;;;;;35.45;16.83;;;;;;;9.36;72.94;96731.66;5027662;28;20029;-80
2020/12/11 08:22:21;;;;;;;28.67;14.85;;;;;;;9.29;75.36;96735.72;5035949;28;20064;-81
2020/12/11 08:24:47;;;;;;;42.90;16.63;;;;;;;9.73;74.05;96734.28;5024516;28;20060;-81
2020/12/11 08:27:21;;;;;;;28.77;15.38;;;;;;;10.92;69.80;96730.81;5023704;28;20448;-82
2020/12/11 08:30:00;;;;;;;39.83;17.73;;;;;;;10.59;67.93;96734.22;5024498;28;20029;-82
2020/12/11 08:32:26;;;;;;;53.42;15.65;;;;;;;10.39;71.25;96727.69;5031180;28;20083;-82
2020/12/11 08:34:52;;;;;;;33.70;16.95;;;;;;;11.43;68.97;96722.28;5020586;28;20421;-83
2020/12/11 08:37:17;;;;;;;28.00;14.68;;;;;;;12.39;63.47;96723.44;5021731;28;20075;-81
2020/12/11 08:39:43;;;;;;;22.27;12.45;;;;;;;12.20;64.20;96723.22;5018839;28;20021;-82
2020/12/11 08:42:31;;;;;;;24.20;13.45;;;;;;;11.71;64.37;96712.94;5042098;28;20457;-81
2020/12/11 08:50:07;;;;;;;32.45;16.17;;;;;;;14.68;56.34;96705.16;5037505;28;20045;-82
2020/12/11 08:57:38;;;;;;;40.10;16.13;;;;;;;17.39;47.05;96721.72;5048265;28;20299;-81
2020/12/11 09:00:05;;;;;;;28.75;14.77;;;;;;;17.85;46.21;96727.66;5025575;28;20490;-81
2020/12/11 09:02:31;;;;;;;25.15;15.45;;;;;;;18.33;44.36;96718.13;5021413;28;20056;-82
2020/12/11 09:04:57;;;;;;;24.08;13.90;;;;;;;18.41;45.32;96720.84;5037978;28;20069;-81
2020/12/11 09:07:24;;;;;;;25.05;15.05;;;;;;;18.97;44.03;96722.03;5011666;28;20024;-80
2020/12/11 09:09:51;;;;;;;33.55;15.63;;;;;;;18.92;45.25;96719.81;5025830;28;20075;-81
2020/12/11 09:12:17;;;;;;;22.80;12.95;;;;;;;19.74;43.49;96708.84;5023484;28;20457;-81
2020/12/11 09:14:42;;;;;;;18.83;11.52;;;;;;;18.97;44.11;96711.19;5027319;28;20068;-81
2020/12/11 09:17:08;;;;;;;18.67;10.45;;;;;;;19.72;43.11;96720.91;5016697;28;20061;-81
2020/12/11 09:19:33;;;;;;;12.77;9.23;;;;;;;19.10;45.14;96708.84;5039060;28;20094;-82
2020/12/11 09:22:01;;;;;;;11.68;6.85;;;;;;;17.52;47.37;96703.25;5022316;28;20032;-81
2020/12/11 09:24:30;;;;;;;19.45;6.63;;;;;;;18.52;46.29;96707.03;5061658;28;20397;-83
2020/12/11 09:26:57;;;;;;;11.60;7.15;;;;;;;19.90;43.34;96714.22;5029773;28;20021;-81
2020/12/11 09:31:57;;;;;;;16.63;8.30;;;;;;;21.48;39.95;96712.09;5039421;28;20453;-81
2020/12/11 09:34:23;;;;;;;9.77;7.40;;;;;;;21.13;40.54;96715.44;5039572;28;20118;-80
2020/12/11 09:36:48;;;;;;;21.35;9.02;;;;;;;20.54;41.80;96701.50;5024360;28;20498;-81
2020/12/11 09:39:14;;;;;;;8.88;4.55;;;;;;;20.95;41.43;96694.78;5027898;28;20409;-82
2020/12/11 09:41:48;;;;;;;7.65;4.97;;;;;;;22.24;38.41;96702.88;5038348;28;20026;-82
2020/12/11 09:47:58;;;;;;;11.55;6.25;;;;;;;23.49;36.55;96703.38;5038377;28;20049;-81
2020/12/11 09:49:58;;;;;;;7.32;4.43;;;;;;;24.78;34.38;96695.44;5037499;28;20064;-81
2020/12/11 09:55:02;;;;;;;9.93;3.63;;;;;;;25.64;31.85;96703.91;5036484;28;20040;-81
2020/12/11 09:57:27;;;;;;;5.70;2.58;;;;;;;25.72;31.24;96692.72;5027338;28;20037;-80
2020/12/11 09:59:56;;;;;;;2.13;1.92;;;;;;;25.73;32.41;96691.69;5014290;28;20034;-81
2020/12/11 10:02:41;;;;;;;6.05;3.55;;;;;;;25.53;32.91;96691.69;5023285;28;20047;-81
2020/12/11 10:05:06;;;;;;;4.78;2.95;;;;;;;25.38;32.70;96684.69;5030916;28;20538;-82
2020/12/11 10:07:32;;;;;;;7.85;2.65;;;;;;;24.96;33.23;96683.94;5029781;28;20104;-81
2020/12/11 10:09:58;;;;;;;6.57;3.40;;;;;;;24.57;33.35;96684.63;5022688;28;20041;-81
2020/12/11 10:12:28;;;;;;;2.28;2.08;;;;;;;24.69;33.74;96671.19;5018505;28;20087;-82
2020/12/11 10:15:06;;;;;;;3.97;2.38;;;;;;;24.36;34.43;96673.78;5040974;28;20519;-81
2020/12/11 10:17:31;;;;;;;3.35;2.55;;;;;;;23.58;34.43;96660.38;5018398;28;20492;-81
2020/12/11 10:19:57;;;;;;;4.85;2.75;;;;;;;23.85;34.54;96665.00;5027362;28;20069;-80
2020/12/11 10:22:23;;;;;;;3.63;2.78;;;;;;;24.48;35.04;96666.69;5033378;28;20398;-81
2020/12/11 10:24:48;;;;;;;4.43;2.45;;;;;;;23.73;35.87;96663.84;5016593;28;20036;-81
2020/12/11 10:27:14;;;;;;;3.50;2.35;;;;;;;22.93;36.38;96650.50;5022688;28;20156;-80
2020/12/11 10:29:40;;;;;;;2.92;2.30;;;;;;;23.49;35.75;96645.19;5054893;28;20052;-81
2020/12/11 10:32:06;;;;;;;7.78;2.85;;;;;;;24.60;33.21;96642.34;5023707;28;20031;-82
2020/12/11 10:34:35;;;;;;;9.98;3.05;;;;;;;23.78;33.46;96642.25;5020523;28;20037;-81
2020/12/11 10:37:11;;;;;;;3.75;2.72;;;;;;;23.38;33.25;96642.97;5021796;28;20223;-82
2020/12/11 10:39:41;;;;;;;6.43;4.47;;;;;;;22.85;35.67;96630.69;5034724;28;20022;-82
2020/12/11 10:42:09;;;;;;;18.17;5.35;;;;;;;22.84;36.46;96634.44;5022511;28;20037;-82
2020/12/11 10:44:35;;;;;;;6.50;4.13;;;;;;;22.41;35.38;96628.03;5022645;28;20485;-82
2020/12/11 10:47:07;;;;;;;7.03;3.42;;;;;;;22.81;34.67;96623.94;5023505;28;20128;-82
2020/12/11 10:49:33;;;;;;;4.90;3.47;;;;;;;23.65;34.59;96640.28;5034007;28;20048;-80
2020/12/11 10:51:58;;;;;;;19.60;3.85;;;;;;;24.34;32.60;96621.19;5021896;28;20056;-81
2020/12/11 10:54:26;;;;;;;4.70;2.85;;;;;;;24.25;32.46;96627.84;5022202;28;20544;-81
2020/12/11 10:56:52;;;;;;;2.97;2.33;;;;;;;24.16;31.99;96619.00;5028807;28;20055;-80
2020/12/11 10:59:18;;;;;;;4.00;3.13;;;;;;;23.15;34.12;96619.47;5024144;28;20028;-81
2020/12/11 11:01:43;;;;;;;5.07;2.90;;;;;;;23.04;35.69;96616.41;5030049;28;20037;-83
2020/12/11 11:04:09;;;;;;;5.60;3.22;;;;;;;22.91;35.94;96599.91;5023865;28;20022;-82
2020/12/11 11:06:41;;;;;;;2.92;2.17;;;;;;;22.78;35.79;96603.34;5027539;28;20032;-83
2020/12/11 11:11:42;;;;;;;8.95;3.65;;;;;;;25.09;32.31;96601.88;5043264;28;20346;-82
2020/12/11 11:19:35;;;;;;;22.70;15.60;;;;;;;26.53;30.39;96602.75;5038473;28;20505;-84
2020/12/11 11:22:22;;;;;;;19.98;12.18;;;;;;;26.16;29.78;96602.47;5023233;28;20115;-83
2020/12/11 11:27:40;;;;;;;11.57;6.82;;;;;;;28.24;24.92;96594.94;5037671;28;20429;-83
2020/12/11 11:30:06;;;;;;;12.23;9.05;;;;;;;28.86;25.59;96592.94;5029136;28;20021;-82
2020/12/11 11:32:31;;;;;;;9.05;6.18;;;;;;;27.30;24.62;96595.16;5026485;28;20517;-83
2020/12/11 11:34:57;;;;;;;9.02;6.05;;;;;;;26.35;26.78;96585.13;5019463;28;20041;-82
2020/12/11 11:37:26;;;;;;;12.82;7.85;;;;;;;25.96;28.34;96587.97;5023024;28;20083;-83
2020/12/11 11:39:52;;;;;;;13.93;6.68;;;;;;;25.83;28.18;96593.47;5028543;28;20060;-76
2020/12/11 11:42:18;;;;;;;10.23;5.30;;;;;;;26.22;27.16;96578.84;5025558;28;20079;-75
2020/12/11 11:44:53;;;;;;;6.40;4.82;;;;;;;26.26;27.09;96580.09;5037740;28;20484;-75
2020/12/11 11:47:18;;;;;;;11.45;7.22;;;;;;;25.77;28.36;96577.88;5024028;28;20037;-76
2020/12/11 11:49:58;;;;;;;14.50;7.68;;;;;;;24.71;30.15;96565.97;5034172;28;20401;-76
2020/12/11 11:54:55;;;;;;;6.23;4.63;;;;;;;21.92;33.85;96563.31;5045526;28;20037;-77
2020/12/11 11:57:20;;;;;;;5.30;3.88;;;;;;;20.93;34.36;96550.03;5028324;28;20031;-76
2020/12/11 11:59:46;;;;;;;51.63;27.23;;;;;;;20.01;36.39;96561.84;5033771;28;20039;-76
2020/12/11 12:02:11;;;;;;;39.58;20.67;;;;;;;19.89;36.19;96546.13;5035497;28;20040;-76
2020/12/11 12:04:37;;;;;;;30.83;19.80;;;;;;;19.81;38.12;96552.41;5031888;28;20045;-76